sensor_id;sensor_type;location;lat;lon;timestamp;temperature;humidity
18733;DHT22;9495;51.210;2.934;2023-03-14T00:02:09;15.40;99.90
18733;DHT22;9495;51.210;2.934;2023-03-14T00:04:37;15.10;99.90
18733;DHT22;9495;51.210;2.934;2023-03-14T00:07:06;15.50;99.90
18733;DHT22;9495;51.210;2.934;2023-03-14T00:09:34;15.30;99.90
18733;DHT22;9495;51.210;2.934;2023-03-14T00:12:05;15.10;99.90
18733;DHT22;9495;51.210;2.934;2023-03-14T00:14:34;15.80;99.90
18733;DHT22;9495;51.210;2.934;2023-03-14T00:17:02;15.50;99.90
18733;DHT22;9495;51.210;2.934;2023-03-14T00:19:31;14.80;99.90
18733;DHT22;9495;51.210;2.934;2023-03-14T00:21:59;14.70;99.90
18733;DHT22;9495;51.210;2.934;2023-03-14T00:24:28;14.70;99.90
18733;DHT22;9495;51.210;2.934;2023-03-14T00:26:56;15.50;99.90
18733;DHT22;9495;51.210;2.934;2023-03-14T00:29:26;15.20;99.90
18733;DHT22;9495;51.210;2.934;2023-03-14T00:31:55;15.10;99.90
18733;DHT22;9495;51.210;2.934;2023-03-14T00:34:23;15.70;99.90
18733;DHT22;9495;51.210;2.934;2023-03-14T00:36:52;16.10;99.90
18733;DHT22;9495;51.210;2.934;2023-03-14T00:39:20;15.40;99.90
18733;DHT22;9495;51.210;2.934;2023-03-14T00:41:49;15.50;99.90
18733;DHT22;9495;51.210;2.934;2023-03-14T00:44:17;15.10;99.90
18733;DHT22;9495;51.210;2.934;2023-03-14T00:46:47;14.50;99.90
18733;DHT22;9495;51.210;2.934;2023-03-14T00:49:16;14.60;99.90
18733;DHT22;9495;51.210;2.934;2023-03-14T00:51:44;14.50;99.90
18733;DHT22;9495;51.210;2.934;2023-03-14T00:54:12;15.20;99.90
18733;DHT22;9495;51.210;2.934;2023-03-14T00:56:41;15.40;99.90
18733;DHT22;9495;51.210;2.934;2023-03-14T00:59:09;15.70;99.90
18733;DHT22;9495;51.210;2.934;2023-03-14T01:01:38;15.50;99.90
18733;DHT22;9495;51.210;2.934;2023-03-14T01:04:08;14.40;99.90
18733;DHT22;9495;51.210;2.934;2023-03-14T01:06:37;15.00;99.90
18733;DHT22;9495;51.210;2.934;2023-03-14T01:09:05;15.20;99.90
18733;DHT22;9495;51.210;2.934;2023-03-14T01:11:35;15.60;99.90
18733;DHT22;9495;51.210;2.934;2023-03-14T01:14:04;15.90;99.90
18733;DHT22;9495;51.210;2.934;2023-03-14T01:16:34;15.50;99.90
18733;DHT22;9495;51.210;2.934;2023-03-14T01:19:03;15.40;99.90
18733;DHT22;9495;51.210;2.934;2023-03-14T01:21:33;14.80;99.90
18733;DHT22;9495;51.210;2.934;2023-03-14T01:24:03;14.60;99.90
18733;DHT22;9495;51.210;2.934;2023-03-14T01:26:34;14.80;99.90
18733;DHT22;9495;51.210;2.934;2023-03-14T01:29:03;15.20;99.90
18733;DHT22;9495;51.210;2.934;2023-03-14T01:31:31;14.50;99.90
18733;DHT22;9495;51.210;2.934;2023-03-14T01:34:00;14.80;99.90
18733;DHT22;9495;51.210;2.934;2023-03-14T01:36:28;14.30;99.90
18733;DHT22;9495;51.210;2.934;2023-03-14T01:38:59;14.60;99.90
18733;DHT22;9495;51.210;2.934;2023-03-14T01:41:27;15.10;99.90
18733;DHT22;9495;51.210;2.934;2023-03-14T01:43:56;14.80;99.90
18733;DHT22;9495;51.210;2.934;2023-03-14T01:46:38;15.90;99.90
18733;DHT22;9495;51.210;2.934;2023-03-14T01:49:15;15.80;99.90
18733;DHT22;9495;51.210;2.934;2023-03-14T01:51:47;15.10;99.90
18733;DHT22;9495;51.210;2.934;2023-03-14T01:54:22;14.60;99.90
18733;DHT22;9495;51.210;2.934;2023-03-14T01:56:56;14.70;99.90
18733;DHT22;9495;51.210;2.934;2023-03-14T01:59:26;14.90;99.90
18733;DHT22;9495;51.210;2.934;2023-03-14T02:01:56;15.20;99.90
18733;DHT22;9495;51.210;2.934;2023-03-14T02:04:29;14.90;99.90
18733;DHT22;9495;51.210;2.934;2023-03-14T02:07:05;14.60;99.90
18733;DHT22;9495;51.210;2.934;2023-03-14T02:09:36;14.40;99.90
18733;DHT22;9495;51.210;2.934;2023-03-14T02:12:08;14.20;99.90
18733;DHT22;9495;51.210;2.934;2023-03-14T02:14:37;13.80;99.90
18733;DHT22;9495;51.210;2.934;2023-03-14T02:17:06;14.10;99.90
18733;DHT22;9495;51.210;2.934;2023-03-14T02:19:50;14.30;99.90
18733;DHT22;9495;51.210;2.934;2023-03-14T02:22:20;14.80;99.90
18733;DHT22;9495;51.210;2.934;2023-03-14T02:24:58;14.80;99.90
18733;DHT22;9495;51.210;2.934;2023-03-14T02:27:28;14.60;99.90
18733;DHT22;9495;51.210;2.934;2023-03-14T02:30:00;14.40;99.90
18733;DHT22;9495;51.210;2.934;2023-03-14T02:32:31;14.90;99.90
18733;DHT22;9495;51.210;2.934;2023-03-14T02:35:03;14.40;99.90
18733;DHT22;9495;51.210;2.934;2023-03-14T02:37:35;15.00;99.90
18733;DHT22;9495;51.210;2.934;2023-03-14T02:40:05;14.80;99.90
18733;DHT22;9495;51.210;2.934;2023-03-14T02:42:36;14.90;99.90
18733;DHT22;9495;51.210;2.934;2023-03-14T02:45:35;14.50;99.90
18733;DHT22;9495;51.210;2.934;2023-03-14T02:48:07;14.40;99.90
18733;DHT22;9495;51.210;2.934;2023-03-14T02:50:36;14.30;99.90
18733;DHT22;9495;51.210;2.934;2023-03-14T02:53:04;15.00;99.90
18733;DHT22;9495;51.210;2.934;2023-03-14T02:55:33;15.10;99.90
18733;DHT22;9495;51.210;2.934;2023-03-14T02:58:02;14.90;99.90
18733;DHT22;9495;51.210;2.934;2023-03-14T03:00:31;14.90;99.90
18733;DHT22;9495;51.210;2.934;2023-03-14T03:03:00;14.40;99.90
18733;DHT22;9495;51.210;2.934;2023-03-14T03:05:29;14.90;99.90
18733;DHT22;9495;51.210;2.934;2023-03-14T03:07:57;14.80;99.90
18733;DHT22;9495;51.210;2.934;2023-03-14T03:10:27;14.40;99.90
18733;DHT22;9495;51.210;2.934;2023-03-14T03:12:55;14.90;99.90
18733;DHT22;9495;51.210;2.934;2023-03-14T03:15:25;15.40;99.90
18733;DHT22;9495;51.210;2.934;2023-03-14T03:17:54;14.90;99.90
18733;DHT22;9495;51.210;2.934;2023-03-14T03:20:22;15.60;99.90
18733;DHT22;9495;51.210;2.934;2023-03-14T03:22:51;15.70;99.90
18733;DHT22;9495;51.210;2.934;2023-03-14T03:25:20;15.30;99.90
18733;DHT22;9495;51.210;2.934;2023-03-14T03:27:48;15.20;99.90
18733;DHT22;9495;51.210;2.934;2023-03-14T03:30:16;14.80;99.90
18733;DHT22;9495;51.210;2.934;2023-03-14T03:32:46;14.90;99.90
18733;DHT22;9495;51.210;2.934;2023-03-14T03:35:15;15.50;99.90
18733;DHT22;9495;51.210;2.934;2023-03-14T03:37:43;14.60;99.90
18733;DHT22;9495;51.210;2.934;2023-03-14T03:40:12;14.70;99.90
18733;DHT22;9495;51.210;2.934;2023-03-14T03:42:41;14.50;99.90
18733;DHT22;9495;51.210;2.934;2023-03-14T03:45:09;14.70;99.90
18733;DHT22;9495;51.210;2.934;2023-03-14T03:47:38;14.70;99.90
18733;DHT22;9495;51.210;2.934;2023-03-14T03:50:09;14.20;99.90
18733;DHT22;9495;51.210;2.934;2023-03-14T03:52:38;14.10;99.90
18733;DHT22;9495;51.210;2.934;2023-03-14T03:55:07;14.10;99.90
18733;DHT22;9495;51.210;2.934;2023-03-14T03:57:35;14.70;99.90
18733;DHT22;9495;51.210;2.934;2023-03-14T04:00:04;14.70;99.90
18733;DHT22;9495;51.210;2.934;2023-03-14T04:02:34;15.20;99.90
18733;DHT22;9495;51.210;2.934;2023-03-14T04:05:02;14.80;99.90
18733;DHT22;9495;51.210;2.934;2023-03-14T04:07:33;14.50;99.90
18733;DHT22;9495;51.210;2.934;2023-03-14T04:10:02;14.50;99.90
18733;DHT22;9495;51.210;2.934;2023-03-14T04:12:30;14.00;99.90
18733;DHT22;9495;51.210;2.934;2023-03-14T04:14:59;14.30;99.90
18733;DHT22;9495;51.210;2.934;2023-03-14T04:17:27;14.40;99.90
18733;DHT22;9495;51.210;2.934;2023-03-14T04:19:55;14.20;99.90
18733;DHT22;9495;51.210;2.934;2023-03-14T04:22:24;14.00;99.90
18733;DHT22;9495;51.210;2.934;2023-03-14T04:24:53;13.80;99.90
18733;DHT22;9495;51.210;2.934;2023-03-14T04:27:22;14.00;99.90
18733;DHT22;9495;51.210;2.934;2023-03-14T04:29:51;13.60;99.90
18733;DHT22;9495;51.210;2.934;2023-03-14T04:32:19;13.10;99.90
18733;DHT22;9495;51.210;2.934;2023-03-14T04:34:48;12.70;99.90
18733;DHT22;9495;51.210;2.934;2023-03-14T04:37:16;11.10;99.90
18733;DHT22;9495;51.210;2.934;2023-03-14T04:39:45;10.40;99.90
18733;DHT22;9495;51.210;2.934;2023-03-14T04:42:14;9.80;99.90
18733;DHT22;9495;51.210;2.934;2023-03-14T04:44:43;9.60;99.90
18733;DHT22;9495;51.210;2.934;2023-03-14T04:47:11;9.70;99.90
18733;DHT22;9495;51.210;2.934;2023-03-14T04:49:39;9.60;99.90
18733;DHT22;9495;51.210;2.934;2023-03-14T04:52:08;9.70;99.90
18733;DHT22;9495;51.210;2.934;2023-03-14T04:54:36;9.90;99.90
18733;DHT22;9495;51.210;2.934;2023-03-14T04:57:05;9.70;99.90
18733;DHT22;9495;51.210;2.934;2023-03-14T04:59:34;9.50;99.90
18733;DHT22;9495;51.210;2.934;2023-03-14T05:02:03;9.60;99.90
18733;DHT22;9495;51.210;2.934;2023-03-14T05:04:31;9.60;99.90
18733;DHT22;9495;51.210;2.934;2023-03-14T05:07:00;9.40;99.90
18733;DHT22;9495;51.210;2.934;2023-03-14T05:09:29;9.40;99.90
18733;DHT22;9495;51.210;2.934;2023-03-14T05:11:58;9.30;99.90
18733;DHT22;9495;51.210;2.934;2023-03-14T05:14:26;9.20;99.90
18733;DHT22;9495;51.210;2.934;2023-03-14T05:16:56;9.60;99.90
18733;DHT22;9495;51.210;2.934;2023-03-14T05:19:24;9.40;99.90
18733;DHT22;9495;51.210;2.934;2023-03-14T05:21:53;9.20;99.90
18733;DHT22;9495;51.210;2.934;2023-03-14T05:24:21;9.40;99.90
18733;DHT22;9495;51.210;2.934;2023-03-14T05:26:50;9.50;99.90
18733;DHT22;9495;51.210;2.934;2023-03-14T05:29:18;9.30;99.90
18733;DHT22;9495;51.210;2.934;2023-03-14T05:31:47;9.10;99.90
18733;DHT22;9495;51.210;2.934;2023-03-14T05:34:16;9.10;99.90
18733;DHT22;9495;51.210;2.934;2023-03-14T05:36:45;9.10;99.90
18733;DHT22;9495;51.210;2.934;2023-03-14T05:39:13;8.90;99.90
18733;DHT22;9495;51.210;2.934;2023-03-14T05:41:42;8.80;99.90
18733;DHT22;9495;51.210;2.934;2023-03-14T05:44:10;8.80;99.90
18733;DHT22;9495;51.210;2.934;2023-03-14T05:46:38;8.80;99.90
18733;DHT22;9495;51.210;2.934;2023-03-14T05:49:07;9.00;99.90
18733;DHT22;9495;51.210;2.934;2023-03-14T05:51:37;8.90;99.90
18733;DHT22;9495;51.210;2.934;2023-03-14T05:54:06;8.90;99.90
18733;DHT22;9495;51.210;2.934;2023-03-14T05:56:34;8.90;99.90
18733;DHT22;9495;51.210;2.934;2023-03-14T05:59:03;8.70;99.90
18733;DHT22;9495;51.210;2.934;2023-03-14T06:01:31;8.70;99.90
18733;DHT22;9495;51.210;2.934;2023-03-14T06:04:00;8.70;99.90
18733;DHT22;9495;51.210;2.934;2023-03-14T06:06:29;8.60;99.90
18733;DHT22;9495;51.210;2.934;2023-03-14T06:08:58;8.40;99.90
18733;DHT22;9495;51.210;2.934;2023-03-14T06:11:27;8.30;99.90
18733;DHT22;9495;51.210;2.934;2023-03-14T06:13:55;8.40;99.90
18733;DHT22;9495;51.210;2.934;2023-03-14T06:16:24;8.40;99.90
18733;DHT22;9495;51.210;2.934;2023-03-14T06:18:52;8.40;99.90
18733;DHT22;9495;51.210;2.934;2023-03-14T06:21:21;8.60;99.90
18733;DHT22;9495;51.210;2.934;2023-03-14T06:23:50;8.60;99.90
18733;DHT22;9495;51.210;2.934;2023-03-14T06:26:19;8.70;99.90
18733;DHT22;9495;51.210;2.934;2023-03-14T06:28:48;8.40;99.90
18733;DHT22;9495;51.210;2.934;2023-03-14T06:31:18;8.40;99.90
18733;DHT22;9495;51.210;2.934;2023-03-14T06:33:46;8.40;99.90
18733;DHT22;9495;51.210;2.934;2023-03-14T06:36:15;8.30;99.90
18733;DHT22;9495;51.210;2.934;2023-03-14T06:38:44;8.40;99.90
18733;DHT22;9495;51.210;2.934;2023-03-14T06:41:12;8.40;99.90
18733;DHT22;9495;51.210;2.934;2023-03-14T06:43:42;8.60;99.90
18733;DHT22;9495;51.210;2.934;2023-03-14T06:46:10;8.50;99.90
18733;DHT22;9495;51.210;2.934;2023-03-14T06:48:39;8.30;99.90
18733;DHT22;9495;51.210;2.934;2023-03-14T06:51:08;8.30;99.90
18733;DHT22;9495;51.210;2.934;2023-03-14T06:53:36;8.40;99.90
18733;DHT22;9495;51.210;2.934;2023-03-14T06:56:05;8.20;99.90
18733;DHT22;9495;51.210;2.934;2023-03-14T06:58:34;8.20;99.90
18733;DHT22;9495;51.210;2.934;2023-03-14T07:01:04;8.20;99.90
18733;DHT22;9495;51.210;2.934;2023-03-14T07:03:33;8.20;99.90
18733;DHT22;9495;51.210;2.934;2023-03-14T07:06:01;8.10;99.90
18733;DHT22;9495;51.210;2.934;2023-03-14T07:08:30;8.20;99.90
18733;DHT22;9495;51.210;2.934;2023-03-14T07:10:59;8.30;99.90
18733;DHT22;9495;51.210;2.934;2023-03-14T07:13:28;8.20;99.90
18733;DHT22;9495;51.210;2.934;2023-03-14T07:15:56;8.20;99.90
18733;DHT22;9495;51.210;2.934;2023-03-14T07:18:26;8.10;99.90
18733;DHT22;9495;51.210;2.934;2023-03-14T07:20:54;8.20;99.90
18733;DHT22;9495;51.210;2.934;2023-03-14T07:23:23;8.20;99.90
18733;DHT22;9495;51.210;2.934;2023-03-14T07:25:52;8.20;99.90
18733;DHT22;9495;51.210;2.934;2023-03-14T07:28:21;8.10;99.90
18733;DHT22;9495;51.210;2.934;2023-03-14T07:30:50;8.20;99.90
18733;DHT22;9495;51.210;2.934;2023-03-14T07:33:18;8.10;99.90
18733;DHT22;9495;51.210;2.934;2023-03-14T07:35:48;8.00;99.90
18733;DHT22;9495;51.210;2.934;2023-03-14T07:38:17;8.10;99.90
18733;DHT22;9495;51.210;2.934;2023-03-14T07:40:49;7.90;99.90
18733;DHT22;9495;51.210;2.934;2023-03-14T07:43:17;7.90;99.90
18733;DHT22;9495;51.210;2.934;2023-03-14T07:45:46;8.30;99.90
18733;DHT22;9495;51.210;2.934;2023-03-14T07:48:17;7.90;99.90
18733;DHT22;9495;51.210;2.934;2023-03-14T07:50:49;7.60;99.90
18733;DHT22;9495;51.210;2.934;2023-03-14T07:53:18;7.60;99.90
18733;DHT22;9495;51.210;2.934;2023-03-14T07:55:46;7.50;99.90
18733;DHT22;9495;51.210;2.934;2023-03-14T07:58:15;7.60;99.90
18733;DHT22;9495;51.210;2.934;2023-03-14T08:00:44;7.90;99.90
18733;DHT22;9495;51.210;2.934;2023-03-14T08:03:13;7.80;99.90
18733;DHT22;9495;51.210;2.934;2023-03-14T08:05:41;7.70;99.90
18733;DHT22;9495;51.210;2.934;2023-03-14T08:08:11;7.70;99.90
18733;DHT22;9495;51.210;2.934;2023-03-14T08:10:39;7.80;99.90
18733;DHT22;9495;51.210;2.934;2023-03-14T08:13:09;7.60;99.90
18733;DHT22;9495;51.210;2.934;2023-03-14T08:15:38;7.60;99.90
18733;DHT22;9495;51.210;2.934;2023-03-14T08:18:06;7.70;99.90
18733;DHT22;9495;51.210;2.934;2023-03-14T08:20:36;7.60;99.90
18733;DHT22;9495;51.210;2.934;2023-03-14T08:23:04;7.60;99.90
18733;DHT22;9495;51.210;2.934;2023-03-14T08:25:34;7.60;99.90
18733;DHT22;9495;51.210;2.934;2023-03-14T08:28:03;7.60;99.90
18733;DHT22;9495;51.210;2.934;2023-03-14T08:30:32;7.40;99.90
18733;DHT22;9495;51.210;2.934;2023-03-14T08:33:00;7.80;99.90
18733;DHT22;9495;51.210;2.934;2023-03-14T08:35:29;7.50;99.90
18733;DHT22;9495;51.210;2.934;2023-03-14T08:37:58;7.40;99.90
18733;DHT22;9495;51.210;2.934;2023-03-14T08:40:26;7.20;99.90
18733;DHT22;9495;51.210;2.934;2023-03-14T08:42:56;7.10;99.90
18733;DHT22;9495;51.210;2.934;2023-03-14T08:45:25;7.30;99.90
18733;DHT22;9495;51.210;2.934;2023-03-14T08:47:53;7.30;99.90
18733;DHT22;9495;51.210;2.934;2023-03-14T08:50:22;7.40;99.90
18733;DHT22;9495;51.210;2.934;2023-03-14T08:52:51;7.50;99.90
18733;DHT22;9495;51.210;2.934;2023-03-14T08:55:20;7.20;99.90
18733;DHT22;9495;51.210;2.934;2023-03-14T08:57:48;7.10;99.90
18733;DHT22;9495;51.210;2.934;2023-03-14T09:00:19;7.30;99.90
18733;DHT22;9495;51.210;2.934;2023-03-14T09:02:48;7.10;99.90
18733;DHT22;9495;51.210;2.934;2023-03-14T09:05:16;7.10;99.90
18733;DHT22;9495;51.210;2.934;2023-03-14T09:07:45;7.00;99.90
18733;DHT22;9495;51.210;2.934;2023-03-14T09:10:14;7.10;99.90
18733;DHT22;9495;51.210;2.934;2023-03-14T09:12:42;7.10;99.90
18733;DHT22;9495;51.210;2.934;2023-03-14T09:15:11;7.30;99.90
18733;DHT22;9495;51.210;2.934;2023-03-14T09:17:42;7.00;99.90
18733;DHT22;9495;51.210;2.934;2023-03-14T09:20:11;6.80;99.90
18733;DHT22;9495;51.210;2.934;2023-03-14T09:22:41;6.90;99.90
18733;DHT22;9495;51.210;2.934;2023-03-14T09:25:10;7.10;99.90
18733;DHT22;9495;51.210;2.934;2023-03-14T09:27:39;7.40;99.90
18733;DHT22;9495;51.210;2.934;2023-03-14T09:30:08;7.20;99.90
18733;DHT22;9495;51.210;2.934;2023-03-14T09:32:37;7.40;99.90
18733;DHT22;9495;51.210;2.934;2023-03-14T09:35:08;7.60;99.90
18733;DHT22;9495;51.210;2.934;2023-03-14T09:37:36;7.80;99.90
18733;DHT22;9495;51.210;2.934;2023-03-14T09:59:56;7.40;99.90
18733;DHT22;9495;51.210;2.934;2023-03-14T10:02:32;7.20;99.90
18733;DHT22;9495;51.210;2.934;2023-03-14T10:05:01;7.20;99.90
18733;DHT22;9495;51.210;2.934;2023-03-14T10:07:34;7.10;99.90
18733;DHT22;9495;51.210;2.934;2023-03-14T10:10:10;7.10;99.90
18733;DHT22;9495;51.210;2.934;2023-03-14T10:12:39;7.20;99.90
18733;DHT22;9495;51.210;2.934;2023-03-14T10:15:12;7.30;99.90
18733;DHT22;9495;51.210;2.934;2023-03-14T10:17:43;7.30;99.90
18733;DHT22;9495;51.210;2.934;2023-03-14T10:20:27;7.40;99.90
18733;DHT22;9495;51.210;2.934;2023-03-14T10:23:00;7.40;99.90
18733;DHT22;9495;51.210;2.934;2023-03-14T10:25:31;7.50;99.90
18733;DHT22;9495;51.210;2.934;2023-03-14T10:28:00;7.70;99.90
18733;DHT22;9495;51.210;2.934;2023-03-14T10:30:40;7.60;99.90
18733;DHT22;9495;51.210;2.934;2023-03-14T10:33:19;7.70;99.90
18733;DHT22;9495;51.210;2.934;2023-03-14T10:35:53;7.80;99.90
18733;DHT22;9495;51.210;2.934;2023-03-14T10:38:23;7.90;99.90
18733;DHT22;9495;51.210;2.934;2023-03-14T10:40:53;7.70;99.90
18733;DHT22;9495;51.210;2.934;2023-03-14T10:43:25;7.60;99.90
18733;DHT22;9495;51.210;2.934;2023-03-14T10:45:57;7.70;99.90
18733;DHT22;9495;51.210;2.934;2023-03-14T10:48:31;7.60;99.90
18733;DHT22;9495;51.210;2.934;2023-03-14T10:51:05;7.60;99.90
18733;DHT22;9495;51.210;2.934;2023-03-14T10:53:39;7.80;99.90
18733;DHT22;9495;51.210;2.934;2023-03-14T10:56:12;7.70;99.90
18733;DHT22;9495;51.210;2.934;2023-03-14T10:58:42;7.70;99.90
18733;DHT22;9495;51.210;2.934;2023-03-14T11:01:26;7.70;99.90
18733;DHT22;9495;51.210;2.934;2023-03-14T11:04:02;7.50;99.90
18733;DHT22;9495;51.210;2.934;2023-03-14T11:06:36;7.60;99.90
18733;DHT22;9495;51.210;2.934;2023-03-14T11:09:12;7.80;99.90
18733;DHT22;9495;51.210;2.934;2023-03-14T11:11:45;7.50;99.90
18733;DHT22;9495;51.210;2.934;2023-03-14T11:14:23;7.60;99.90
18733;DHT22;9495;51.210;2.934;2023-03-14T11:16:59;7.70;99.90
18733;DHT22;9495;51.210;2.934;2023-03-14T11:19:42;7.50;99.90
18733;DHT22;9495;51.210;2.934;2023-03-14T11:22:20;7.00;99.90
18733;DHT22;9495;51.210;2.934;2023-03-14T11:25:09;7.00;99.90
18733;DHT22;9495;51.210;2.934;2023-03-14T11:27:43;7.00;99.90
18733;DHT22;9495;51.210;2.934;2023-03-14T11:30:18;7.10;99.90
18733;DHT22;9495;51.210;2.934;2023-03-14T11:32:55;7.10;99.90
18733;DHT22;9495;51.210;2.934;2023-03-14T11:35:28;7.10;99.90
18733;DHT22;9495;51.210;2.934;2023-03-14T11:38:18;7.50;99.90
18733;DHT22;9495;51.210;2.934;2023-03-14T11:40:48;7.50;99.90
18733;DHT22;9495;51.210;2.934;2023-03-14T11:43:23;7.30;99.90
18733;DHT22;9495;51.210;2.934;2023-03-14T11:45:56;7.50;99.90
18733;DHT22;9495;51.210;2.934;2023-03-14T11:48:32;7.50;99.90
18733;DHT22;9495;51.210;2.934;2023-03-14T11:51:07;7.30;99.90
18733;DHT22;9495;51.210;2.934;2023-03-14T11:53:47;6.90;99.90
18733;DHT22;9495;51.210;2.934;2023-03-14T11:56:23;7.00;99.90
18733;DHT22;9495;51.210;2.934;2023-03-14T11:58:57;7.00;99.90
18733;DHT22;9495;51.210;2.934;2023-03-14T12:01:32;6.90;99.90
18733;DHT22;9495;51.210;2.934;2023-03-14T12:04:09;6.90;99.90
18733;DHT22;9495;51.210;2.934;2023-03-14T12:06:45;7.10;99.90
18733;DHT22;9495;51.210;2.934;2023-03-14T12:09:16;7.40;99.90
18733;DHT22;9495;51.210;2.934;2023-03-14T12:11:48;7.00;99.90
18733;DHT22;9495;51.210;2.934;2023-03-14T12:14:22;6.80;99.90
18733;DHT22;9495;51.210;2.934;2023-03-14T12:16:54;6.50;99.90
18733;DHT22;9495;51.210;2.934;2023-03-14T12:19:34;6.40;99.90
18733;DHT22;9495;51.210;2.934;2023-03-14T12:22:21;6.30;99.90
18733;DHT22;9495;51.210;2.934;2023-03-14T12:24:53;6.30;99.90
18733;DHT22;9495;51.210;2.934;2023-03-14T12:27:48;6.50;99.90
18733;DHT22;9495;51.210;2.934;2023-03-14T12:30:24;6.50;99.90
18733;DHT22;9495;51.210;2.934;2023-03-14T12:33:29;6.50;99.90
18733;DHT22;9495;51.210;2.934;2023-03-14T12:36:19;6.70;99.90
18733;DHT22;9495;51.210;2.934;2023-03-14T12:39:11;6.60;99.90
18733;DHT22;9495;51.210;2.934;2023-03-14T12:41:43;6.60;99.90
18733;DHT22;9495;51.210;2.934;2023-03-14T12:44:45;6.60;99.90
18733;DHT22;9495;51.210;2.934;2023-03-14T12:47:49;6.80;99.90
18733;DHT22;9495;51.210;2.934;2023-03-14T12:50:23;6.80;99.90
18733;DHT22;9495;51.210;2.934;2023-03-14T12:55:56;6.90;99.90
18733;DHT22;9495;51.210;2.934;2023-03-14T12:58:31;7.30;99.90
18733;DHT22;9495;51.210;2.934;2023-03-14T13:01:01;7.10;99.90
18733;DHT22;9495;51.210;2.934;2023-03-14T13:03:39;7.20;99.90
18733;DHT22;9495;51.210;2.934;2023-03-14T13:06:10;7.00;99.90
18733;DHT22;9495;51.210;2.934;2023-03-14T13:08:42;7.10;99.90
18733;DHT22;9495;51.210;2.934;2023-03-14T13:11:12;6.90;99.90
18733;DHT22;9495;51.210;2.934;2023-03-14T13:13:45;6.80;99.90
18733;DHT22;9495;51.210;2.934;2023-03-14T13:16:17;6.80;99.90
18733;DHT22;9495;51.210;2.934;2023-03-14T13:18:47;6.80;99.90
18733;DHT22;9495;51.210;2.934;2023-03-14T13:21:17;6.80;99.90
18733;DHT22;9495;51.210;2.934;2023-03-14T13:23:58;6.80;99.90
18733;DHT22;9495;51.210;2.934;2023-03-14T13:26:34;6.70;99.90
18733;DHT22;9495;51.210;2.934;2023-03-14T13:29:16;6.50;99.90
18733;DHT22;9495;51.210;2.934;2023-03-14T13:31:50;6.50;99.90
18733;DHT22;9495;51.210;2.934;2023-03-14T13:34:18;6.50;99.90
18733;DHT22;9495;51.210;2.934;2023-03-14T13:36:51;6.70;99.90
18733;DHT22;9495;51.210;2.934;2023-03-14T13:39:22;6.50;99.90
18733;DHT22;9495;51.210;2.934;2023-03-14T13:41:52;6.60;99.90
18733;DHT22;9495;51.210;2.934;2023-03-14T13:44:25;6.70;99.90
18733;DHT22;9495;51.210;2.934;2023-03-14T13:46:57;6.80;99.90
18733;DHT22;9495;51.210;2.934;2023-03-14T13:49:26;7.00;99.90
18733;DHT22;9495;51.210;2.934;2023-03-14T13:51:56;7.00;99.90
18733;DHT22;9495;51.210;2.934;2023-03-14T13:54:26;7.20;99.90
18733;DHT22;9495;51.210;2.934;2023-03-14T13:57:00;7.10;99.90
18733;DHT22;9495;51.210;2.934;2023-03-14T13:59:30;7.20;99.90
18733;DHT22;9495;51.210;2.934;2023-03-14T14:02:00;7.20;99.90
18733;DHT22;9495;51.210;2.934;2023-03-14T14:04:33;7.30;99.90
18733;DHT22;9495;51.210;2.934;2023-03-14T14:07:07;7.30;99.90
18733;DHT22;9495;51.210;2.934;2023-03-14T14:09:41;7.30;99.90
18733;DHT22;9495;51.210;2.934;2023-03-14T14:12:13;7.30;99.90
18733;DHT22;9495;51.210;2.934;2023-03-14T14:14:45;7.40;99.90
18733;DHT22;9495;51.210;2.934;2023-03-14T14:17:18;7.40;99.90
18733;DHT22;9495;51.210;2.934;2023-03-14T14:19:49;7.40;99.90
18733;DHT22;9495;51.210;2.934;2023-03-14T14:22:18;7.40;99.90
18733;DHT22;9495;51.210;2.934;2023-03-14T14:24:49;7.50;99.90
18733;DHT22;9495;51.210;2.934;2023-03-14T14:27:23;7.60;99.90
18733;DHT22;9495;51.210;2.934;2023-03-14T14:29:58;7.60;99.90
18733;DHT22;9495;51.210;2.934;2023-03-14T14:32:35;7.70;99.90
18733;DHT22;9495;51.210;2.934;2023-03-14T14:35:04;8.50;99.90
18733;DHT22;9495;51.210;2.934;2023-03-14T14:37:34;8.00;99.90
18733;DHT22;9495;51.210;2.934;2023-03-14T14:40:13;7.80;99.90
18733;DHT22;9495;51.210;2.934;2023-03-14T14:42:44;7.90;99.90
18733;DHT22;9495;51.210;2.934;2023-03-14T14:45:14;7.80;99.90
18733;DHT22;9495;51.210;2.934;2023-03-14T14:47:52;7.90;99.90
18733;DHT22;9495;51.210;2.934;2023-03-14T14:50:28;7.90;99.90
18733;DHT22;9495;51.210;2.934;2023-03-14T14:52:57;7.90;99.90
18733;DHT22;9495;51.210;2.934;2023-03-14T14:55:33;7.80;99.90
18733;DHT22;9495;51.210;2.934;2023-03-14T14:58:16;7.70;99.90
18733;DHT22;9495;51.210;2.934;2023-03-14T15:00:53;7.90;99.90
18733;DHT22;9495;51.210;2.934;2023-03-14T15:03:22;7.90;99.90
18733;DHT22;9495;51.210;2.934;2023-03-14T15:05:53;7.70;99.90
18733;DHT22;9495;51.210;2.934;2023-03-14T15:08:24;7.70;99.90
18733;DHT22;9495;51.210;2.934;2023-03-14T15:10:55;7.80;99.90
18733;DHT22;9495;51.210;2.934;2023-03-14T15:13:23;7.90;99.90
18733;DHT22;9495;51.210;2.934;2023-03-14T15:15:52;7.90;99.90
18733;DHT22;9495;51.210;2.934;2023-03-14T15:18:24;8.00;99.90
18733;DHT22;9495;51.210;2.934;2023-03-14T15:20:56;8.00;99.90
18733;DHT22;9495;51.210;2.934;2023-03-14T15:23:25;8.00;99.90
18733;DHT22;9495;51.210;2.934;2023-03-14T15:25:55;8.00;99.90
18733;DHT22;9495;51.210;2.934;2023-03-14T15:28:25;7.80;99.90
18733;DHT22;9495;51.210;2.934;2023-03-14T15:30:55;7.70;99.90
18733;DHT22;9495;51.210;2.934;2023-03-14T15:33:24;7.60;99.90
18733;DHT22;9495;51.210;2.934;2023-03-14T15:35:53;7.70;99.90
18733;DHT22;9495;51.210;2.934;2023-03-14T15:38:22;7.80;99.90
18733;DHT22;9495;51.210;2.934;2023-03-14T15:40:50;7.70;99.90
18733;DHT22;9495;51.210;2.934;2023-03-14T15:43:20;7.80;99.90
18733;DHT22;9495;51.210;2.934;2023-03-14T15:45:49;7.90;99.90
18733;DHT22;9495;51.210;2.934;2023-03-14T15:48:19;7.80;99.90
18733;DHT22;9495;51.210;2.934;2023-03-14T15:50:48;7.70;99.90
18733;DHT22;9495;51.210;2.934;2023-03-14T15:53:16;7.60;99.90
18733;DHT22;9495;51.210;2.934;2023-03-14T15:55:45;7.70;99.90
18733;DHT22;9495;51.210;2.934;2023-03-14T15:58:16;7.70;99.90
18733;DHT22;9495;51.210;2.934;2023-03-14T16:00:49;7.70;99.90
18733;DHT22;9495;51.210;2.934;2023-03-14T16:03:18;7.70;99.90
18733;DHT22;9495;51.210;2.934;2023-03-14T16:05:47;7.60;99.90
18733;DHT22;9495;51.210;2.934;2023-03-14T16:08:16;7.60;99.90
18733;DHT22;9495;51.210;2.934;2023-03-14T16:10:45;7.70;99.90
18733;DHT22;9495;51.210;2.934;2023-03-14T16:13:13;7.60;99.90
18733;DHT22;9495;51.210;2.934;2023-03-14T16:15:42;7.60;99.90
18733;DHT22;9495;51.210;2.934;2023-03-14T16:18:12;7.60;99.90
18733;DHT22;9495;51.210;2.934;2023-03-14T16:20:55;7.60;99.90
18733;DHT22;9495;51.210;2.934;2023-03-14T16:23:24;7.70;99.90
18733;DHT22;9495;51.210;2.934;2023-03-14T16:25:53;7.70;99.90
18733;DHT22;9495;51.210;2.934;2023-03-14T16:28:22;7.60;99.90
18733;DHT22;9495;51.210;2.934;2023-03-14T16:30:50;7.60;99.90
18733;DHT22;9495;51.210;2.934;2023-03-14T16:33:22;7.60;99.90
18733;DHT22;9495;51.210;2.934;2023-03-14T16:35:54;7.60;99.90
18733;DHT22;9495;51.210;2.934;2023-03-14T16:38:23;7.60;99.90
18733;DHT22;9495;51.210;2.934;2023-03-14T16:40:56;8.00;99.90
18733;DHT22;9495;51.210;2.934;2023-03-14T16:43:25;7.90;99.90
18733;DHT22;9495;51.210;2.934;2023-03-14T16:45:56;7.80;99.90